createdAt,value
2023-02-02T00:01:36.217Z,30.63
2023-02-02T00:04:04.769Z,37.05
2023-02-02T00:06:34.194Z,27.27
2023-02-02T00:09:03.835Z,37.97
2023-02-02T00:11:31.823Z,31.48
2023-02-02T00:14:01.076Z,29.08
2023-02-02T00:16:45.383Z,29.13
2023-02-02T00:19:18.265Z,30.20
2023-02-02T00:21:47.087Z,33.17
2023-02-02T00:24:18.933Z,31.90
2023-02-02T00:26:48.933Z,29.73
2023-02-02T00:29:18.338Z,28.85
2023-02-02T00:31:48.063Z,27.55
2023-02-02T00:34:17.044Z,34.67
2023-02-02T00:36:45.889Z,30.23
2023-02-02T00:39:20.151Z,31.73
2023-02-02T00:41:48.750Z,33.53
2023-02-02T00:44:34.216Z,29.40
2023-02-02T00:47:04.474Z,29.27
2023-02-02T00:49:33.130Z,30.53
2023-02-02T00:52:01.327Z,31.45
2023-02-02T00:54:29.817Z,32.42
2023-02-02T00:56:57.971Z,31.23
2023-02-02T00:59:26.524Z,35.65
2023-02-02T01:01:54.523Z,30.83
2023-02-02T01:04:24.353Z,30.67
2023-02-02T01:06:52.517Z,34.75
2023-02-02T01:09:20.665Z,32.83
2023-02-02T01:11:48.798Z,30.15
2023-02-02T01:14:17.044Z,38.95
2023-02-02T01:16:45.259Z,29.98
2023-02-02T01:19:14.623Z,29.60
2023-02-02T01:21:44.522Z,28.33
2023-02-02T01:24:12.763Z,29.20
2023-02-02T01:26:40.834Z,31.55
2023-02-02T01:29:08.911Z,31.13
2023-02-02T01:31:36.831Z,38.65
2023-02-02T01:34:04.932Z,30.88
2023-02-02T01:36:33.494Z,31.67
2023-02-02T01:39:03.065Z,32.40
2023-02-02T01:41:31.658Z,32.13
2023-02-02T01:44:01.708Z,32.28
2023-02-02T01:46:31.741Z,34.92
2023-02-02T01:49:11.106Z,31.23
2023-02-02T01:51:43.779Z,33.30
2023-02-02T01:54:17.065Z,28.90
2023-02-02T01:56:50.316Z,33.58
2023-02-02T01:59:19.771Z,33.10
2023-02-02T02:01:50.131Z,35.25
2023-02-02T02:04:18.212Z,31.00
2023-02-02T02:06:48.189Z,32.88
2023-02-02T02:09:18.436Z,32.15
2023-02-02T02:11:46.626Z,32.95
2023-02-02T02:14:33.843Z,33.75
2023-02-02T02:17:15.505Z,32.08
2023-02-02T02:20:43.738Z,32.85
2023-02-02T02:24:01.191Z,33.60
2023-02-02T02:27:11.218Z,28.63
2023-02-02T02:30:08.195Z,35.33
2023-02-02T02:32:47.493Z,34.40
2023-02-02T02:35:24.683Z,32.70
2023-02-02T02:37:58.809Z,30.55
2023-02-02T02:40:32.218Z,33.03
2023-02-02T02:43:03.764Z,38.22
2023-02-02T02:45:33.458Z,33.35
2023-02-02T02:48:04.377Z,31.88
2023-02-02T02:50:32.901Z,34.03
2023-02-02T02:53:06.064Z,31.10
2023-02-02T02:55:50.347Z,32.10
2023-02-02T02:58:23.016Z,31.10
2023-02-02T03:01:00.847Z,29.75
2023-02-02T03:03:46.484Z,34.28
2023-02-02T03:06:21.461Z,31.20
2023-02-02T03:08:53.285Z,35.17
2023-02-02T03:11:22.180Z,32.20
2023-02-02T03:13:50.604Z,31.30
2023-02-02T03:16:19.290Z,28.98
2023-02-02T03:18:49.261Z,28.23
2023-02-02T03:21:17.296Z,28.67
2023-02-02T03:23:45.314Z,32.55
2023-02-02T03:26:13.582Z,30.92
2023-02-02T03:28:42.796Z,33.88
2023-02-02T03:31:12.406Z,31.55
2023-02-02T03:33:40.533Z,30.13
2023-02-02T03:36:11.161Z,35.40
2023-02-02T03:38:39.066Z,30.23
2023-02-02T03:41:07.482Z,30.40
2023-02-02T03:43:35.498Z,28.95
2023-02-02T03:46:05.324Z,33.47
2023-02-02T03:48:36.552Z,28.20
2023-02-02T03:51:09.346Z,32.83
2023-02-02T03:53:37.334Z,32.30
2023-02-02T03:56:05.842Z,31.35
2023-02-02T03:58:33.825Z,30.92
2023-02-02T04:01:05.023Z,31.65
2023-02-02T04:03:33.387Z,30.95
2023-02-02T04:06:01.572Z,31.38
2023-02-02T04:08:31.712Z,29.05
2023-02-02T04:10:59.648Z,28.20
2023-02-02T04:13:27.674Z,32.03
2023-02-02T04:16:00.162Z,29.63
2023-02-02T04:18:28.972Z,28.55
2023-02-02T04:21:00.859Z,31.98
2023-02-02T04:23:31.643Z,37.58
2023-02-02T04:26:00.684Z,28.20
2023-02-02T04:28:29.547Z,28.20
2023-02-02T04:30:58.230Z,27.92
2023-02-02T04:33:28.031Z,27.85
2023-02-02T04:35:56.252Z,30.38
2023-02-02T04:38:24.476Z,27.80
2023-02-02T04:40:54.045Z,32.85
2023-02-02T04:43:22.109Z,32.10
2023-02-02T04:45:55.637Z,29.05
2023-02-02T04:48:23.852Z,30.55
2023-02-02T04:50:52.182Z,27.75
2023-02-02T04:53:20.161Z,28.38
2023-02-02T04:55:48.194Z,28.13
2023-02-02T04:58:17.626Z,31.90
2023-02-02T05:00:45.747Z,27.55
2023-02-02T05:03:14.167Z,28.35
2023-02-02T05:05:42.353Z,29.13
2023-02-02T05:08:12.082Z,27.88
2023-02-02T05:10:44.101Z,30.80
2023-02-02T05:13:12.009Z,28.35
2023-02-02T05:15:41.600Z,29.52
2023-02-02T05:18:09.622Z,29.50
2023-02-02T05:20:37.519Z,28.95
2023-02-02T05:23:05.603Z,32.22
2023-02-02T05:25:36.776Z,28.92
2023-02-02T05:28:04.701Z,29.40
2023-02-02T05:30:35.891Z,27.13
2023-02-02T05:33:05.256Z,28.38
2023-02-02T05:35:33.307Z,30.67
2023-02-02T05:38:01.314Z,29.45
2023-02-02T05:40:29.303Z,31.67
2023-02-02T05:42:57.425Z,30.98
2023-02-02T05:45:25.852Z,27.77
2023-02-02T05:47:55.798Z,27.23
2023-02-02T05:50:25.568Z,29.38
2023-02-02T05:52:53.949Z,29.02
2023-02-02T05:55:22.463Z,31.88
2023-02-02T05:57:51.016Z,28.27
2023-02-02T06:00:19.837Z,33.90
2023-02-02T06:02:48.228Z,28.27
2023-02-02T06:05:16.859Z,29.67
2023-02-02T06:07:46.709Z,27.30
2023-02-02T06:10:15.044Z,27.17
2023-02-02T06:12:44.314Z,29.83
2023-02-02T06:15:13.068Z,30.33
2023-02-02T06:17:41.220Z,28.92
2023-02-02T06:20:10.418Z,26.55
2023-02-02T06:22:39.132Z,26.75
2023-02-02T06:25:09.603Z,33.55
2023-02-02T06:27:39.987Z,34.67
2023-02-02T06:30:09.272Z,27.25
2023-02-02T06:32:37.688Z,29.20
2023-02-02T06:35:06.612Z,29.85
2023-02-02T06:37:35.313Z,32.20
2023-02-02T06:40:03.406Z,31.63
2023-02-02T06:42:35.996Z,30.42
2023-02-02T06:45:04.526Z,28.98
2023-02-02T06:47:34.509Z,32.85
2023-02-02T06:50:02.551Z,27.58
2023-02-02T06:52:30.655Z,34.15
2023-02-02T06:54:58.720Z,29.10
2023-02-02T06:57:27.307Z,30.67
2023-02-02T08:10:34.035Z,29.55
2023-02-02T08:13:02.005Z,29.20
2023-02-02T08:15:30.264Z,25.60
2023-02-02T08:17:59.280Z,28.58
2023-02-02T08:20:27.327Z,26.88
2023-02-02T08:22:55.718Z,25.65
2023-02-02T08:25:24.520Z,35.28
2023-02-02T08:27:58.365Z,25.92
2023-02-02T08:30:26.699Z,28.67
2023-02-02T08:32:55.154Z,27.50
2023-02-02T08:35:23.392Z,28.90
2023-02-02T08:37:51.939Z,28.70
2023-02-02T08:40:20.509Z,29.58
2023-02-02T08:42:51.236Z,34.78
2023-02-02T08:46:04.114Z,28.17
2023-02-02T08:48:19.891Z,26.38
2023-02-02T08:50:54.193Z,27.45
2023-02-02T08:53:22.998Z,29.13
2023-02-02T08:55:59.579Z,33.03
2023-02-02T08:58:27.929Z,32.85
2023-02-02T09:01:04.773Z,27.88
2023-02-02T09:03:42.250Z,34.88
2023-02-02T09:06:12.067Z,25.83
2023-02-02T09:08:41.127Z,25.98
2023-02-02T09:11:11.592Z,26.45
2023-02-02T09:13:41.103Z,31.02
2023-02-02T09:16:27.512Z,26.73
2023-02-02T09:18:56.771Z,31.92
2023-02-02T09:21:28.075Z,25.58
2023-02-02T09:23:56.872Z,29.05
2023-02-02T09:26:27.142Z,25.33
2023-02-02T09:29:17.143Z,26.77
2023-02-02T10:13:51.216Z,31.38
2023-02-02T10:16:25.828Z,25.65
2023-02-02T10:22:42.428Z,25.55
2023-02-02T10:25:44.281Z,27.45
2023-02-02T10:28:20.016Z,25.83
2023-02-02T10:30:57.798Z,26.40
2023-02-02T10:33:39.679Z,27.17
2023-02-02T10:36:31.596Z,27.23
2023-02-02T10:39:05.009Z,27.27
2023-02-02T10:41:42.630Z,29.15
2023-02-02T10:44:27.928Z,28.25
2023-02-02T10:46:59.461Z,26.00
2023-02-02T10:49:59.393Z,27.25
2023-02-02T10:52:33.165Z,29.35
2023-02-02T10:55:08.447Z,25.70
2023-02-02T10:57:50.888Z,26.50
2023-02-02T11:00:25.097Z,29.05
2023-02-02T11:02:54.548Z,27.08
2023-02-02T11:05:44.730Z,27.15
2023-02-02T11:08:15.675Z,27.23
2023-02-02T11:10:44.856Z,27.63
2023-02-02T11:13:24.112Z,32.63
2023-02-02T11:19:28.846Z,26.60
2023-02-02T11:22:00.838Z,27.10
2023-02-02T11:24:36.522Z,25.77
2023-02-02T11:27:08.233Z,26.15
2023-02-02T11:29:44.846Z,27.13
2023-02-02T11:32:31.051Z,25.13
2023-02-02T11:35:18.389Z,25.73
2023-02-02T11:38:09.622Z,25.55
2023-02-02T11:40:39.551Z,25.88
2023-02-02T11:43:18.547Z,25.23
2023-02-02T11:45:50.578Z,25.13
2023-02-02T11:48:20.311Z,25.27
2023-02-02T11:50:49.819Z,26.38
2023-02-02T11:53:29.935Z,25.30
2023-02-02T11:56:00.790Z,25.23
2023-02-02T11:58:33.142Z,26.83
2023-02-02T12:01:03.720Z,27.38
2023-02-02T12:03:37.065Z,26.27
2023-02-02T12:06:22.859Z,26.27
2023-02-02T12:08:56.488Z,25.23
2023-02-02T12:11:39.449Z,27.52
2023-02-02T12:14:19.561Z,25.95
2023-02-02T12:16:56.680Z,24.23
2023-02-02T12:19:44.649Z,25.40
2023-02-02T12:22:25.305Z,24.80
2023-02-02T12:25:00.402Z,24.67
2023-02-02T12:27:44.257Z,23.63
2023-02-02T12:30:24.803Z,21.20
2023-02-02T12:33:09.295Z,18.73
2023-02-02T12:35:55.049Z,17.80
2023-02-02T12:38:37.741Z,18.02
2023-02-02T12:41:24.635Z,17.63
2023-02-02T12:44:00.389Z,19.63
2023-02-02T12:46:48.476Z,21.33
2023-02-02T12:49:41.080Z,17.38
2023-02-02T12:52:24.487Z,23.63
2023-02-02T12:55:16.253Z,16.80
2023-02-02T12:57:58.024Z,18.80
2023-02-02T13:00:52.340Z,17.90
2023-02-02T13:03:30.563Z,15.35
2023-02-02T13:06:22.762Z,17.17
2023-02-02T13:08:58.309Z,16.35
2023-02-02T13:11:38.270Z,15.48
2023-02-02T13:14:13.701Z,14.98
2023-02-02T13:16:48.384Z,15.05
2023-02-02T13:19:29.851Z,16.20
2023-02-02T13:22:01.565Z,14.90
2023-02-02T13:24:32.778Z,15.90
2023-02-02T13:27:05.797Z,15.70
2023-02-02T13:29:47.257Z,15.38
2023-02-02T13:32:22.528Z,15.30
2023-02-02T13:34:54.962Z,16.17
2023-02-02T13:37:29.467Z,15.27
2023-02-02T13:40:00.209Z,15.27
2023-02-02T13:42:38.012Z,14.63
2023-02-02T13:45:19.974Z,19.05
2023-02-02T13:47:53.850Z,15.20
2023-02-02T13:50:30.547Z,18.40
2023-02-02T13:53:22.714Z,14.60
2023-02-02T13:56:06.453Z,19.13
2023-02-02T13:58:51.923Z,17.65
2023-02-02T14:01:22.867Z,18.02
2023-02-02T14:03:54.961Z,16.55
2023-02-02T14:06:25.547Z,13.95
2023-02-02T14:08:57.107Z,16.80
2023-02-02T14:11:29.154Z,15.60
2023-02-02T14:14:18.007Z,15.18
2023-02-02T14:16:51.343Z,19.67
2023-02-02T14:19:51.049Z,15.18
2023-02-02T14:22:22.398Z,17.35
2023-02-02T14:24:53.596Z,17.65
2023-02-02T14:27:57.789Z,18.67
2023-02-02T14:30:32.764Z,14.88
2023-02-02T14:33:34.621Z,17.02
2023-02-02T14:36:06.449Z,24.27
2023-02-02T14:38:49.902Z,20.38
2023-02-02T14:41:40.750Z,16.23
2023-02-02T14:44:08.945Z,24.10
2023-02-02T14:46:48.279Z,21.30
2023-02-02T14:49:24.039Z,21.30
2023-02-02T14:52:00.246Z,18.35
2023-02-02T14:54:49.987Z,17.55
2023-02-02T14:57:31.099Z,23.90
2023-02-02T15:00:01.470Z,17.52
2023-02-02T15:02:35.303Z,22.10
2023-02-02T15:05:46.083Z,17.88
2023-02-02T15:08:24.382Z,18.13
2023-02-02T15:11:25.063Z,16.52
2023-02-02T15:13:59.490Z,19.73
2023-02-02T15:16:31.768Z,18.17
2023-02-02T15:19:09.201Z,23.35
2023-02-02T15:21:41.766Z,18.38
2023-02-02T15:24:22.344Z,19.10
2023-02-02T15:27:02.487Z,19.60
2023-02-02T15:29:41.562Z,22.13
2023-02-02T15:32:18.374Z,23.38
2023-02-02T15:34:50.027Z,21.83
2023-02-02T15:37:23.297Z,17.90
2023-02-02T15:39:56.266Z,19.25
2023-02-02T15:42:46.591Z,19.00
2023-02-02T15:45:39.826Z,18.38
2023-02-02T15:48:24.743Z,18.33
2023-02-02T15:50:55.882Z,17.88
2023-02-02T15:53:32.343Z,20.80
2023-02-02T15:56:18.175Z,23.23
2023-02-02T15:58:49.066Z,18.90
2023-02-02T16:01:20.596Z,19.85
2023-02-02T16:03:53.332Z,20.00
2023-02-02T16:06:21.980Z,21.85
2023-02-02T16:08:51.050Z,21.13
2023-02-02T16:11:23.228Z,18.35
2023-02-02T16:14:01.541Z,21.50
2023-02-02T16:16:32.204Z,19.60
2023-02-02T16:19:06.877Z,19.08
2023-02-02T16:21:37.050Z,19.83
2023-02-02T16:24:07.394Z,21.95
2023-02-02T16:26:37.631Z,17.98
2023-02-02T16:29:06.601Z,18.85
2023-02-02T16:31:36.840Z,22.95
2023-02-02T16:34:04.938Z,18.30
2023-02-02T16:36:33.194Z,18.48
2023-02-02T16:39:01.409Z,18.35
2023-02-02T16:41:32.989Z,19.10
2023-02-02T16:44:34.680Z,18.40
2023-02-02T16:47:05.923Z,18.20
2023-02-02T16:49:34.476Z,17.60
2023-02-02T16:52:12.791Z,17.20
2023-02-02T16:54:45.295Z,16.67
2023-02-02T16:57:19.674Z,18.13
2023-02-02T16:59:51.802Z,17.10
2023-02-02T17:02:27.051Z,17.10
2023-02-02T17:04:59.730Z,15.50
2023-02-02T17:07:29.538Z,16.60
2023-02-02T17:10:14.509Z,17.35
2023-02-02T17:12:42.523Z,17.65
2023-02-02T17:15:34.878Z,18.67
2023-02-02T17:18:06.095Z,17.45
2023-02-02T17:20:34.639Z,18.00
2023-02-02T17:23:05.130Z,18.80
2023-02-02T17:25:37.917Z,18.80
2023-02-02T17:28:11.368Z,18.60
2023-02-02T17:30:41.034Z,18.50
2023-02-02T17:33:14.822Z,19.45
2023-02-02T17:35:53.698Z,19.83
2023-02-02T17:38:22.992Z,19.90
2023-02-02T17:40:51.573Z,20.80
2023-02-02T17:43:19.638Z,20.50
2023-02-02T17:45:47.898Z,22.80
2023-02-02T17:48:17.686Z,21.02
2023-02-02T17:50:45.738Z,21.33
2023-02-02T17:53:15.163Z,20.13
2023-02-02T17:55:44.470Z,23.52
2023-02-02T17:58:17.025Z,21.35
2023-02-02T18:00:46.602Z,21.13
2023-02-02T18:03:22.160Z,22.17
2023-02-02T18:05:50.678Z,20.77
2023-02-02T18:08:19.144Z,20.02
2023-02-02T18:10:47.172Z,23.90
2023-02-02T18:13:17.103Z,21.88
2023-02-02T18:15:45.504Z,21.95
2023-02-02T18:18:13.630Z,22.80
2023-02-02T18:20:44.383Z,21.42
2023-02-02T18:23:13.274Z,23.92
2023-02-02T18:25:41.898Z,21.60
2023-02-02T18:28:10.778Z,22.30
2023-02-02T18:30:39.696Z,21.05
2023-02-02T18:33:10.073Z,22.48
2023-02-02T18:35:38.123Z,21.65
2023-02-02T18:38:07.794Z,21.90
2023-02-02T18:40:36.047Z,21.85
2023-02-02T18:43:03.997Z,23.73
2023-02-02T18:45:32.682Z,23.85
2023-02-02T18:48:01.167Z,22.17
2023-02-02T18:50:30.807Z,22.27
2023-02-02T18:52:58.974Z,22.20
2023-02-02T18:55:29.194Z,21.63
2023-02-02T18:57:57.293Z,21.23
2023-02-02T19:00:25.487Z,21.55
2023-02-02T19:02:53.587Z,22.05
2023-02-02T19:05:38.850Z,25.63
2023-02-02T19:08:08.153Z,21.85
2023-02-02T19:10:37.780Z,21.98
2023-02-02T19:13:15.832Z,22.50
2023-02-02T19:15:44.127Z,22.25
2023-02-02T19:18:16.211Z,23.40
2023-02-02T19:20:45.001Z,22.52
2023-02-02T19:23:14.840Z,22.75
2023-02-02T19:26:03.289Z,26.48
2023-02-02T19:28:32.508Z,22.42
2023-02-02T19:31:02.193Z,23.02
2023-02-02T19:33:40.717Z,24.25
2023-02-02T19:36:14.381Z,22.88
2023-02-02T19:38:43.137Z,23.85
2023-02-02T19:41:19.595Z,23.38
2023-02-02T19:43:48.966Z,26.02
2023-02-02T19:46:22.164Z,24.58
2023-02-02T19:48:53.858Z,23.85
2023-02-02T19:51:36.071Z,23.30
2023-02-02T19:54:04.656Z,23.50
2023-02-02T19:56:40.800Z,24.13
2023-02-02T19:59:13.588Z,24.00
2023-02-02T20:01:45.955Z,23.98
2023-02-02T20:04:16.363Z,23.52
2023-02-02T20:06:57.940Z,24.35
2023-02-02T20:09:35.277Z,23.85
2023-02-02T20:12:19.259Z,24.02
2023-02-02T20:14:48.894Z,24.48
2023-02-02T20:17:26.499Z,27.98
2023-02-02T20:19:54.522Z,24.17
2023-02-02T20:22:26.746Z,29.02
2023-02-02T20:24:56.625Z,24.85
2023-02-02T20:27:29.439Z,27.95
2023-02-02T20:30:09.256Z,27.10
2023-02-02T20:32:42.273Z,28.60
2023-02-02T20:35:26.531Z,26.23
2023-02-02T20:37:55.751Z,25.33
2023-02-02T20:40:31.980Z,24.80
2023-02-02T20:43:01.587Z,29.15
2023-02-02T20:45:29.564Z,25.58
2023-02-02T20:47:57.769Z,24.33
2023-02-02T20:50:26.141Z,24.27
2023-02-02T20:52:55.736Z,26.60
2023-02-02T20:55:24.181Z,25.27
2023-02-02T20:57:52.859Z,24.70
2023-02-02T21:00:27.229Z,25.35
2023-02-02T21:02:56.591Z,25.85
2023-02-02T21:05:25.075Z,26.77
2023-02-02T21:07:54.931Z,27.77
2023-02-02T21:10:23.556Z,27.48
2023-02-02T21:12:52.125Z,25.73
2023-02-02T21:15:20.195Z,26.17
2023-02-02T21:17:49.835Z,24.95
2023-02-02T21:20:17.889Z,26.05
2023-02-02T21:22:48.666Z,25.55
2023-02-02T21:25:16.874Z,26.80
2023-02-02T21:27:45.000Z,25.15
2023-02-02T21:30:14.330Z,30.80
2023-02-02T21:32:42.597Z,24.58
2023-02-02T21:35:14.207Z,26.17
2023-02-02T21:37:44.323Z,27.10
2023-02-02T21:40:15.229Z,26.95
2023-02-02T21:42:49.238Z,25.17
2023-02-02T21:45:35.599Z,27.20
2023-02-02T21:48:07.219Z,26.77
2023-02-02T21:50:40.871Z,29.33
2023-02-02T21:53:20.736Z,27.58
2023-02-02T21:55:53.527Z,24.42
2023-02-02T21:58:25.475Z,31.10
2023-02-02T22:00:54.979Z,24.98
2023-02-02T22:03:28.131Z,24.88
2023-02-02T22:06:13.620Z,31.98
2023-02-02T22:08:42.317Z,26.70
2023-02-02T22:11:25.028Z,25.52
2023-02-02T22:13:55.770Z,29.92
2023-02-02T22:16:25.475Z,30.50
2023-02-02T22:18:53.856Z,29.52
2023-02-02T22:21:24.023Z,25.77
2023-02-02T22:23:52.072Z,25.55
2023-02-02T22:26:36.361Z,25.42
2023-02-02T22:29:13.746Z,26.27
2023-02-02T22:31:41.860Z,25.88
2023-02-02T22:34:10.001Z,29.02
2023-02-02T22:36:39.467Z,26.20
2023-02-02T22:39:07.682Z,26.65
2023-02-02T22:41:36.063Z,26.08
2023-02-02T22:44:04.125Z,26.45
2023-02-02T22:46:32.831Z,26.25
2023-02-02T22:49:00.944Z,26.52
2023-02-02T22:51:29.698Z,29.08
2023-02-02T22:53:59.547Z,26.35
2023-02-02T22:56:27.579Z,27.60
2023-02-02T22:58:56.109Z,26.85
2023-02-02T23:01:24.321Z,26.45
2023-02-02T23:03:52.828Z,26.30
2023-02-02T23:06:20.955Z,30.80
2023-02-02T23:08:48.903Z,26.75
2023-02-02T23:11:18.533Z,27.60
2023-02-02T23:13:46.525Z,30.33
2023-02-02T23:16:14.676Z,29.65
2023-02-02T23:18:42.858Z,28.95
2023-02-02T23:21:11.070Z,26.80
2023-02-02T23:23:39.715Z,29.73
2023-02-02T23:26:08.014Z,26.98
2023-02-02T23:28:37.539Z,31.35
2023-02-02T23:31:05.829Z,29.80
2023-02-02T23:33:34.323Z,32.97
2023-02-02T23:36:04.620Z,27.85
2023-02-02T23:38:35.605Z,28.00
2023-02-02T23:41:03.614Z,28.42
2023-02-02T23:43:31.741Z,26.65
2023-02-02T23:46:01.109Z,27.85
2023-02-02T23:48:29.458Z,29.30
2023-02-02T23:50:57.608Z,26.50
2023-02-02T23:53:26.217Z,26.48
2023-02-02T23:55:56.025Z,27.55
2023-02-02T23:58:24.040Z,27.80
